sensor_id;sensor_type;location;lat;lon;timestamp;P1;durP1;ratioP1;P2;durP2;ratioP2
37535;SDS011;23379;51.554;6.736;2023-08-12T00:02:13;10.52;;;8.20;;
37535;SDS011;23379;51.554;6.736;2023-08-12T00:04:39;12.40;;;7.70;;
37535;SDS011;23379;51.554;6.736;2023-08-12T00:07:04;11.40;;;8.25;;
37535;SDS011;23379;51.554;6.736;2023-08-12T00:09:29;13.93;;;8.10;;
37535;SDS011;23379;51.554;6.736;2023-08-12T00:11:55;14.20;;;7.57;;
37535;SDS011;23379;51.554;6.736;2023-08-12T00:14:20;11.25;;;6.82;;
37535;SDS011;23379;51.554;6.736;2023-08-12T00:16:45;10.57;;;6.97;;
37535;SDS011;23379;51.554;6.736;2023-08-12T00:19:11;9.50;;;6.93;;
37535;SDS011;23379;51.554;6.736;2023-08-12T00:21:36;9.48;;;7.35;;
37535;SDS011;23379;51.554;6.736;2023-08-12T00:24:02;14.05;;;7.30;;
37535;SDS011;23379;51.554;6.736;2023-08-12T00:26:27;9.20;;;7.03;;
37535;SDS011;23379;51.554;6.736;2023-08-12T00:28:53;12.30;;;7.28;;
37535;SDS011;23379;51.554;6.736;2023-08-12T00:31:18;9.80;;;7.32;;
37535;SDS011;23379;51.554;6.736;2023-08-12T00:33:43;12.63;;;7.70;;
37535;SDS011;23379;51.554;6.736;2023-08-12T00:36:09;11.82;;;7.05;;
37535;SDS011;23379;51.554;6.736;2023-08-12T00:38:34;10.70;;;7.43;;
37535;SDS011;23379;51.554;6.736;2023-08-12T00:41:00;11.10;;;7.65;;
37535;SDS011;23379;51.554;6.736;2023-08-12T00:43:25;10.05;;;6.93;;
37535;SDS011;23379;51.554;6.736;2023-08-12T00:45:50;9.85;;;6.97;;
37535;SDS011;23379;51.554;6.736;2023-08-12T00:48:16;11.73;;;7.32;;
37535;SDS011;23379;51.554;6.736;2023-08-12T00:50:42;12.88;;;7.70;;
37535;SDS011;23379;51.554;6.736;2023-08-12T00:53:08;9.65;;;7.18;;
37535;SDS011;23379;51.554;6.736;2023-08-12T00:55:35;10.85;;;7.97;;
37535;SDS011;23379;51.554;6.736;2023-08-12T00:58:00;11.95;;;7.90;;
37535;SDS011;23379;51.554;6.736;2023-08-12T01:00:27;11.00;;;8.00;;
37535;SDS011;23379;51.554;6.736;2023-08-12T01:02:53;10.05;;;7.70;;
37535;SDS011;23379;51.554;6.736;2023-08-12T01:05:19;11.77;;;7.32;;
37535;SDS011;23379;51.554;6.736;2023-08-12T01:07:45;11.43;;;8.40;;
37535;SDS011;23379;51.554;6.736;2023-08-12T01:10:11;11.43;;;7.07;;
37535;SDS011;23379;51.554;6.736;2023-08-12T01:12:41;11.60;;;8.07;;
37535;SDS011;23379;51.554;6.736;2023-08-12T01:15:15;14.48;;;8.35;;
37535;SDS011;23379;51.554;6.736;2023-08-12T01:17:45;12.27;;;7.18;;
37535;SDS011;23379;51.554;6.736;2023-08-12T01:20:16;11.95;;;7.80;;
37535;SDS011;23379;51.554;6.736;2023-08-12T01:22:43;13.18;;;8.05;;
37535;SDS011;23379;51.554;6.736;2023-08-12T01:25:11;11.55;;;8.30;;
37535;SDS011;23379;51.554;6.736;2023-08-12T01:27:36;12.93;;;7.50;;
37535;SDS011;23379;51.554;6.736;2023-08-12T01:30:02;14.80;;;9.65;;
37535;SDS011;23379;51.554;6.736;2023-08-12T01:37:33;25.83;;;13.32;;
37535;SDS011;23379;51.554;6.736;2023-08-12T01:40:00;23.83;;;12.50;;
37535;SDS011;23379;51.554;6.736;2023-08-12T01:42:32;24.75;;;13.93;;
37535;SDS011;23379;51.554;6.736;2023-08-12T01:44:58;24.48;;;13.95;;
37535;SDS011;23379;51.554;6.736;2023-08-12T01:47:26;23.02;;;13.35;;
37535;SDS011;23379;51.554;6.736;2023-08-12T01:49:52;29.35;;;15.02;;
37535;SDS011;23379;51.554;6.736;2023-08-12T01:52:17;26.45;;;14.95;;
37535;SDS011;23379;51.554;6.736;2023-08-12T01:54:42;30.27;;;15.13;;
37535;SDS011;23379;51.554;6.736;2023-08-12T01:57:08;26.50;;;15.70;;
37535;SDS011;23379;51.554;6.736;2023-08-12T01:59:34;30.98;;;15.68;;
37535;SDS011;23379;51.554;6.736;2023-08-12T02:02:00;26.13;;;15.48;;
37535;SDS011;23379;51.554;6.736;2023-08-12T02:04:26;33.67;;;16.73;;
37535;SDS011;23379;51.554;6.736;2023-08-12T02:06:52;35.17;;;16.83;;
37535;SDS011;23379;51.554;6.736;2023-08-12T02:09:17;30.70;;;15.63;;
37535;SDS011;23379;51.554;6.736;2023-08-12T02:11:42;29.23;;;15.70;;
37535;SDS011;23379;51.554;6.736;2023-08-12T02:14:08;33.85;;;16.40;;
37535;SDS011;23379;51.554;6.736;2023-08-12T02:16:33;26.95;;;16.08;;
37535;SDS011;23379;51.554;6.736;2023-08-12T02:18:58;31.02;;;15.40;;
37535;SDS011;23379;51.554;6.736;2023-08-12T02:21:24;28.90;;;15.60;;
37535;SDS011;23379;51.554;6.736;2023-08-12T02:23:49;27.85;;;16.13;;
37535;SDS011;23379;51.554;6.736;2023-08-12T02:26:15;26.25;;;15.30;;
37535;SDS011;23379;51.554;6.736;2023-08-12T02:28:40;29.58;;;14.80;;
37535;SDS011;23379;51.554;6.736;2023-08-12T02:31:06;27.48;;;14.50;;
37535;SDS011;23379;51.554;6.736;2023-08-12T02:33:31;26.52;;;14.77;;
37535;SDS011;23379;51.554;6.736;2023-08-12T02:35:56;24.90;;;14.02;;
37535;SDS011;23379;51.554;6.736;2023-08-12T02:38:22;22.02;;;14.05;;
37535;SDS011;23379;51.554;6.736;2023-08-12T02:40:48;20.38;;;13.68;;
37535;SDS011;23379;51.554;6.736;2023-08-12T02:43:14;25.40;;;14.02;;
37535;SDS011;23379;51.554;6.736;2023-08-12T02:45:39;23.52;;;13.23;;
37535;SDS011;23379;51.554;6.736;2023-08-12T02:48:05;20.65;;;12.82;;
37535;SDS011;23379;51.554;6.736;2023-08-12T02:50:31;23.25;;;13.13;;
37535;SDS011;23379;51.554;6.736;2023-08-12T02:52:56;22.63;;;13.52;;
37535;SDS011;23379;51.554;6.736;2023-08-12T02:55:21;22.83;;;12.95;;
37535;SDS011;23379;51.554;6.736;2023-08-12T02:57:47;20.38;;;11.85;;
37535;SDS011;23379;51.554;6.736;2023-08-12T03:00:12;19.85;;;13.27;;
37535;SDS011;23379;51.554;6.736;2023-08-12T03:02:38;19.65;;;11.93;;
37535;SDS011;23379;51.554;6.736;2023-08-12T03:05:07;18.80;;;12.30;;
37535;SDS011;23379;51.554;6.736;2023-08-12T03:07:33;21.17;;;11.70;;
37535;SDS011;23379;51.554;6.736;2023-08-12T03:09:58;19.13;;;10.95;;
37535;SDS011;23379;51.554;6.736;2023-08-12T03:12:23;18.08;;;11.35;;
37535;SDS011;23379;51.554;6.736;2023-08-12T03:14:49;15.80;;;11.07;;
37535;SDS011;23379;51.554;6.736;2023-08-12T03:17:14;18.60;;;10.52;;
37535;SDS011;23379;51.554;6.736;2023-08-12T03:19:39;14.88;;;10.98;;
37535;SDS011;23379;51.554;6.736;2023-08-12T03:22:05;18.15;;;10.45;;
37535;SDS011;23379;51.554;6.736;2023-08-12T03:24:30;17.40;;;10.18;;
37535;SDS011;23379;51.554;6.736;2023-08-12T03:26:56;17.67;;;10.88;;
37535;SDS011;23379;51.554;6.736;2023-08-12T03:29:21;19.65;;;10.93;;
37535;SDS011;23379;51.554;6.736;2023-08-12T03:31:46;15.63;;;10.60;;
37535;SDS011;23379;51.554;6.736;2023-08-12T03:34:12;19.40;;;10.77;;
37535;SDS011;23379;51.554;6.736;2023-08-12T03:36:37;23.10;;;10.10;;
37535;SDS011;23379;51.554;6.736;2023-08-12T03:39:02;15.40;;;11.02;;
37535;SDS011;23379;51.554;6.736;2023-08-12T03:41:28;13.90;;;9.75;;
37535;SDS011;23379;51.554;6.736;2023-08-12T03:43:54;17.83;;;10.38;;
37535;SDS011;23379;51.554;6.736;2023-08-12T03:46:19;17.38;;;10.77;;
37535;SDS011;23379;51.554;6.736;2023-08-12T03:48:45;22.17;;;10.65;;
37535;SDS011;23379;51.554;6.736;2023-08-12T03:51:10;13.25;;;9.73;;
37535;SDS011;23379;51.554;6.736;2023-08-12T03:53:35;15.98;;;11.07;;
37535;SDS011;23379;51.554;6.736;2023-08-12T03:56:01;16.92;;;11.20;;
37535;SDS011;23379;51.554;6.736;2023-08-12T03:58:26;16.50;;;12.18;;
37535;SDS011;23379;51.554;6.736;2023-08-12T04:00:51;21.65;;;12.38;;
37535;SDS011;23379;51.554;6.736;2023-08-12T04:03:17;18.77;;;11.93;;
37535;SDS011;23379;51.554;6.736;2023-08-12T04:05:52;18.98;;;11.70;;
37535;SDS011;23379;51.554;6.736;2023-08-12T04:08:18;23.88;;;11.68;;
37535;SDS011;23379;51.554;6.736;2023-08-12T04:10:47;20.33;;;12.15;;
37535;SDS011;23379;51.554;6.736;2023-08-12T04:13:13;21.65;;;11.98;;
37535;SDS011;23379;51.554;6.736;2023-08-12T04:15:39;20.05;;;12.52;;
37535;SDS011;23379;51.554;6.736;2023-08-12T04:18:05;25.17;;;12.70;;
37535;SDS011;23379;51.554;6.736;2023-08-12T04:20:30;22.35;;;12.73;;
37535;SDS011;23379;51.554;6.736;2023-08-12T04:22:56;23.67;;;14.00;;
37535;SDS011;23379;51.554;6.736;2023-08-12T04:25:21;27.17;;;13.75;;
37535;SDS011;23379;51.554;6.736;2023-08-12T04:27:47;27.63;;;14.98;;
37535;SDS011;23379;51.554;6.736;2023-08-12T04:30:14;27.45;;;14.80;;
37535;SDS011;23379;51.554;6.736;2023-08-12T04:32:40;35.17;;;16.90;;
37535;SDS011;23379;51.554;6.736;2023-08-12T04:35:06;31.05;;;16.05;;
37535;SDS011;23379;51.554;6.736;2023-08-12T04:37:31;34.40;;;17.63;;
37535;SDS011;23379;51.554;6.736;2023-08-12T04:39:57;40.58;;;19.50;;
37535;SDS011;23379;51.554;6.736;2023-08-12T04:42:23;36.58;;;18.98;;
37535;SDS011;23379;51.554;6.736;2023-08-12T04:44:49;36.10;;;17.92;;
37535;SDS011;23379;51.554;6.736;2023-08-12T04:47:14;35.42;;;18.27;;
37535;SDS011;23379;51.554;6.736;2023-08-12T04:49:39;38.88;;;18.92;;
37535;SDS011;23379;51.554;6.736;2023-08-12T04:52:05;44.10;;;20.27;;
37535;SDS011;23379;51.554;6.736;2023-08-12T04:54:31;38.13;;;20.65;;
37535;SDS011;23379;51.554;6.736;2023-08-12T04:56:57;40.85;;;20.10;;
37535;SDS011;23379;51.554;6.736;2023-08-12T04:59:22;43.28;;;20.95;;
37535;SDS011;23379;51.554;6.736;2023-08-12T05:01:48;41.47;;;19.95;;
37535;SDS011;23379;51.554;6.736;2023-08-12T05:04:13;38.55;;;19.75;;
37535;SDS011;23379;51.554;6.736;2023-08-12T05:06:39;37.60;;;19.27;;
37535;SDS011;23379;51.554;6.736;2023-08-12T05:09:05;35.60;;;18.75;;
37535;SDS011;23379;51.554;6.736;2023-08-12T05:11:30;28.38;;;17.75;;
37535;SDS011;23379;51.554;6.736;2023-08-12T05:13:56;29.77;;;17.17;;
37535;SDS011;23379;51.554;6.736;2023-08-12T05:18:54;29.58;;;15.32;;
37535;SDS011;23379;51.554;6.736;2023-08-12T05:21:19;27.33;;;14.73;;
37535;SDS011;23379;51.554;6.736;2023-08-12T05:23:45;29.92;;;15.15;;
37535;SDS011;23379;51.554;6.736;2023-08-12T05:26:10;23.27;;;14.40;;
37535;SDS011;23379;51.554;6.736;2023-08-12T05:28:36;26.40;;;13.73;;
37535;SDS011;23379;51.554;6.736;2023-08-12T05:31:01;20.13;;;13.40;;
37535;SDS011;23379;51.554;6.736;2023-08-12T05:33:26;22.60;;;12.85;;
37535;SDS011;23379;51.554;6.736;2023-08-12T05:35:52;19.80;;;12.75;;
37535;SDS011;23379;51.554;6.736;2023-08-12T05:38:17;23.10;;;13.85;;
37535;SDS011;23379;51.554;6.736;2023-08-12T05:40:42;24.60;;;13.45;;
37535;SDS011;23379;51.554;6.736;2023-08-12T05:43:08;21.35;;;12.93;;
37535;SDS011;23379;51.554;6.736;2023-08-12T05:45:33;21.70;;;12.93;;
37535;SDS011;23379;51.554;6.736;2023-08-12T05:47:58;19.42;;;12.38;;
37535;SDS011;23379;51.554;6.736;2023-08-12T05:50:24;20.77;;;13.32;;
37535;SDS011;23379;51.554;6.736;2023-08-12T05:52:49;20.58;;;12.82;;
37535;SDS011;23379;51.554;6.736;2023-08-12T05:55:14;18.73;;;11.95;;
37535;SDS011;23379;51.554;6.736;2023-08-12T05:57:40;17.70;;;11.98;;
37535;SDS011;23379;51.554;6.736;2023-08-12T06:00:05;20.77;;;12.30;;
37535;SDS011;23379;51.554;6.736;2023-08-12T06:02:31;17.52;;;11.82;;
37535;SDS011;23379;51.554;6.736;2023-08-12T06:04:57;18.70;;;11.98;;
37535;SDS011;23379;51.554;6.736;2023-08-12T06:07:22;21.65;;;12.23;;
37535;SDS011;23379;51.554;6.736;2023-08-12T06:09:48;18.45;;;13.23;;
37535;SDS011;23379;51.554;6.736;2023-08-12T06:12:14;21.10;;;11.85;;
37535;SDS011;23379;51.554;6.736;2023-08-12T06:14:40;17.05;;;12.10;;
37535;SDS011;23379;51.554;6.736;2023-08-12T06:17:05;20.67;;;12.15;;
37535;SDS011;23379;51.554;6.736;2023-08-12T06:19:31;19.45;;;11.82;;
37535;SDS011;23379;51.554;6.736;2023-08-12T06:21:56;21.60;;;11.65;;
37535;SDS011;23379;51.554;6.736;2023-08-12T06:24:22;18.20;;;11.68;;
37535;SDS011;23379;51.554;6.736;2023-08-12T06:26:47;24.20;;;13.23;;
37535;SDS011;23379;51.554;6.736;2023-08-12T06:29:12;26.33;;;14.73;;
37535;SDS011;23379;51.554;6.736;2023-08-12T06:31:38;29.10;;;15.25;;
37535;SDS011;23379;51.554;6.736;2023-08-12T06:34:03;32.90;;;16.67;;
37535;SDS011;23379;51.554;6.736;2023-08-12T06:36:29;30.48;;;16.70;;
37535;SDS011;23379;51.554;6.736;2023-08-12T06:38:54;41.50;;;19.80;;
37535;SDS011;23379;51.554;6.736;2023-08-12T06:41:19;33.67;;;16.80;;
37535;SDS011;23379;51.554;6.736;2023-08-12T06:43:45;24.33;;;14.50;;
37535;SDS011;23379;51.554;6.736;2023-08-12T06:46:10;19.10;;;12.95;;
37535;SDS011;23379;51.554;6.736;2023-08-12T06:48:36;21.77;;;11.02;;
37535;SDS011;23379;51.554;6.736;2023-08-12T06:51:01;20.15;;;11.15;;
37535;SDS011;23379;51.554;6.736;2023-08-12T06:53:31;15.98;;;9.60;;
37535;SDS011;23379;51.554;6.736;2023-08-12T06:55:57;16.17;;;10.48;;
37535;SDS011;23379;51.554;6.736;2023-08-12T06:58:22;18.30;;;10.80;;
37535;SDS011;23379;51.554;6.736;2023-08-12T07:00:48;15.85;;;9.77;;
37535;SDS011;23379;51.554;6.736;2023-08-12T07:03:13;16.80;;;9.68;;
37535;SDS011;23379;51.554;6.736;2023-08-12T07:05:38;15.82;;;10.43;;
37535;SDS011;23379;51.554;6.736;2023-08-12T07:08:04;17.92;;;10.30;;
37535;SDS011;23379;51.554;6.736;2023-08-12T07:10:29;15.82;;;9.88;;
37535;SDS011;23379;51.554;6.736;2023-08-12T07:12:55;17.20;;;10.63;;
37535;SDS011;23379;51.554;6.736;2023-08-12T07:15:20;20.05;;;12.07;;
37535;SDS011;23379;51.554;6.736;2023-08-12T07:17:45;19.45;;;11.88;;
37535;SDS011;23379;51.554;6.736;2023-08-12T07:20:11;17.90;;;12.60;;
37535;SDS011;23379;51.554;6.736;2023-08-12T07:22:36;20.30;;;15.27;;
37535;SDS011;23379;51.554;6.736;2023-08-12T07:25:01;22.90;;;16.70;;
37535;SDS011;23379;51.554;6.736;2023-08-12T07:27:27;25.27;;;16.42;;
37535;SDS011;23379;51.554;6.736;2023-08-12T07:29:52;21.58;;;16.98;;
37535;SDS011;23379;51.554;6.736;2023-08-12T07:32:18;24.23;;;16.83;;
37535;SDS011;23379;51.554;6.736;2023-08-12T07:34:44;23.70;;;16.30;;
37535;SDS011;23379;51.554;6.736;2023-08-12T07:37:09;21.48;;;15.13;;
37535;SDS011;23379;51.554;6.736;2023-08-12T07:39:35;18.90;;;13.98;;
37535;SDS011;23379;51.554;6.736;2023-08-12T07:42:00;18.23;;;13.57;;
37535;SDS011;23379;51.554;6.736;2023-08-12T07:44:25;22.35;;;13.75;;
37535;SDS011;23379;51.554;6.736;2023-08-12T07:46:51;15.48;;;12.57;;
37535;SDS011;23379;51.554;6.736;2023-08-12T07:49:16;15.40;;;12.93;;
37535;SDS011;23379;51.554;6.736;2023-08-12T07:51:41;17.27;;;13.38;;
37535;SDS011;23379;51.554;6.736;2023-08-12T07:54:07;20.65;;;13.07;;
37535;SDS011;23379;51.554;6.736;2023-08-12T07:56:32;19.10;;;11.95;;
37535;SDS011;23379;51.554;6.736;2023-08-12T07:58:58;20.25;;;11.88;;
37535;SDS011;23379;51.554;6.736;2023-08-12T08:01:23;19.10;;;12.00;;
37535;SDS011;23379;51.554;6.736;2023-08-12T08:03:48;16.77;;;12.52;;
37535;SDS011;23379;51.554;6.736;2023-08-12T08:06:14;18.73;;;12.18;;
37535;SDS011;23379;51.554;6.736;2023-08-12T08:08:39;16.48;;;11.73;;
37535;SDS011;23379;51.554;6.736;2023-08-12T08:11:04;15.77;;;10.68;;
37535;SDS011;23379;51.554;6.736;2023-08-12T08:13:30;14.65;;;10.70;;
37535;SDS011;23379;51.554;6.736;2023-08-12T08:15:55;14.27;;;9.95;;
37535;SDS011;23379;51.554;6.736;2023-08-12T08:18:21;12.75;;;9.30;;
37535;SDS011;23379;51.554;6.736;2023-08-12T08:20:46;12.20;;;9.35;;
37535;SDS011;23379;51.554;6.736;2023-08-12T08:23:11;15.65;;;9.98;;
37535;SDS011;23379;51.554;6.736;2023-08-12T08:25:37;14.35;;;10.27;;
37535;SDS011;23379;51.554;6.736;2023-08-12T08:28:02;15.43;;;7.95;;
37535;SDS011;23379;51.554;6.736;2023-08-12T08:30:28;11.93;;;8.65;;
37535;SDS011;23379;51.554;6.736;2023-08-12T08:32:54;12.85;;;7.68;;
37535;SDS011;23379;51.554;6.736;2023-08-12T08:35:19;8.85;;;6.82;;
37535;SDS011;23379;51.554;6.736;2023-08-12T08:37:44;9.63;;;6.88;;
37535;SDS011;23379;51.554;6.736;2023-08-12T08:40:10;8.98;;;6.45;;
37535;SDS011;23379;51.554;6.736;2023-08-12T08:42:36;6.63;;;5.93;;
37535;SDS011;23379;51.554;6.736;2023-08-12T08:45:02;6.88;;;5.47;;
37535;SDS011;23379;51.554;6.736;2023-08-12T08:47:30;7.35;;;5.57;;
37535;SDS011;23379;51.554;6.736;2023-08-12T08:49:56;6.50;;;3.67;;
37535;SDS011;23379;51.554;6.736;2023-08-12T08:52:25;5.78;;;3.95;;
37535;SDS011;23379;51.554;6.736;2023-08-12T08:54:51;4.72;;;3.45;;
37535;SDS011;23379;51.554;6.736;2023-08-12T08:57:17;4.50;;;3.22;;
37535;SDS011;23379;51.554;6.736;2023-08-12T08:59:44;4.78;;;3.10;;
37535;SDS011;23379;51.554;6.736;2023-08-12T09:02:15;3.75;;;2.95;;
37535;SDS011;23379;51.554;6.736;2023-08-12T09:04:45;4.78;;;3.17;;
37535;SDS011;23379;51.554;6.736;2023-08-12T09:07:11;4.95;;;2.80;;
37535;SDS011;23379;51.554;6.736;2023-08-12T09:09:45;5.97;;;2.95;;
37535;SDS011;23379;51.554;6.736;2023-08-12T09:12:13;2.45;;;2.25;;
37535;SDS011;23379;51.554;6.736;2023-08-12T09:14:40;3.80;;;2.60;;
37535;SDS011;23379;51.554;6.736;2023-08-12T09:17:06;4.10;;;2.80;;
37535;SDS011;23379;51.554;6.736;2023-08-12T09:19:32;4.82;;;2.88;;
37535;SDS011;23379;51.554;6.736;2023-08-12T09:21:57;2.80;;;2.50;;
37535;SDS011;23379;51.554;6.736;2023-08-12T09:24:24;2.45;;;2.05;;
37535;SDS011;23379;51.554;6.736;2023-08-12T09:26:53;2.05;;;1.85;;
37535;SDS011;23379;51.554;6.736;2023-08-12T09:29:23;2.70;;;2.08;;
37535;SDS011;23379;51.554;6.736;2023-08-12T09:31:54;4.45;;;2.10;;
37535;SDS011;23379;51.554;6.736;2023-08-12T09:34:19;2.00;;;1.65;;
37535;SDS011;23379;51.554;6.736;2023-08-12T09:36:45;2.80;;;2.22;;
37535;SDS011;23379;51.554;6.736;2023-08-12T09:39:12;2.92;;;2.03;;
37535;SDS011;23379;51.554;6.736;2023-08-12T09:41:38;2.38;;;1.70;;
37535;SDS011;23379;51.554;6.736;2023-08-12T09:44:04;2.88;;;1.92;;
37535;SDS011;23379;51.554;6.736;2023-08-12T09:46:32;2.03;;;1.52;;
37535;SDS011;23379;51.554;6.736;2023-08-12T09:48:58;1.75;;;1.60;;
37535;SDS011;23379;51.554;6.736;2023-08-12T09:51:23;3.15;;;1.65;;
37535;SDS011;23379;51.554;6.736;2023-08-12T09:53:49;2.03;;;1.48;;
37535;SDS011;23379;51.554;6.736;2023-08-12T09:56:17;1.67;;;1.58;;
37535;SDS011;23379;51.554;6.736;2023-08-12T09:58:47;2.72;;;1.80;;
37535;SDS011;23379;51.554;6.736;2023-08-12T10:01:13;1.52;;;1.42;;
37535;SDS011;23379;51.554;6.736;2023-08-12T10:03:43;1.92;;;1.77;;
37535;SDS011;23379;51.554;6.736;2023-08-12T10:06:13;2.65;;;1.67;;
37535;SDS011;23379;51.554;6.736;2023-08-12T10:08:40;2.33;;;1.60;;
37535;SDS011;23379;51.554;6.736;2023-08-12T10:11:06;1.67;;;1.42;;
37535;SDS011;23379;51.554;6.736;2023-08-12T10:13:33;2.50;;;1.63;;
37535;SDS011;23379;51.554;6.736;2023-08-12T10:15:58;2.60;;;1.42;;
37535;SDS011;23379;51.554;6.736;2023-08-12T10:18:25;2.38;;;1.60;;
37535;SDS011;23379;51.554;6.736;2023-08-12T10:20:53;1.92;;;1.55;;
37535;SDS011;23379;51.554;6.736;2023-08-12T10:23:21;1.90;;;1.42;;
37535;SDS011;23379;51.554;6.736;2023-08-12T10:25:48;1.60;;;1.50;;
37535;SDS011;23379;51.554;6.736;2023-08-12T10:28:18;2.10;;;1.40;;
37535;SDS011;23379;51.554;6.736;2023-08-12T10:30:44;1.85;;;1.35;;
37535;SDS011;23379;51.554;6.736;2023-08-12T10:33:10;1.20;;;1.10;;
37535;SDS011;23379;51.554;6.736;2023-08-12T10:35:45;1.38;;;1.15;;
37535;SDS011;23379;51.554;6.736;2023-08-12T10:38:19;1.50;;;1.40;;
37535;SDS011;23379;51.554;6.736;2023-08-12T10:40:45;2.15;;;1.10;;
37535;SDS011;23379;51.554;6.736;2023-08-12T10:43:14;1.50;;;1.27;;
37535;SDS011;23379;51.554;6.736;2023-08-12T10:45:47;1.73;;;0.88;;
37535;SDS011;23379;51.554;6.736;2023-08-12T10:48:23;1.25;;;1.15;;
37535;SDS011;23379;51.554;6.736;2023-08-12T10:50:53;1.75;;;1.20;;
37535;SDS011;23379;51.554;6.736;2023-08-12T10:53:25;1.38;;;1.00;;
37535;SDS011;23379;51.554;6.736;2023-08-12T10:55:58;1.88;;;0.93;;
37535;SDS011;23379;51.554;6.736;2023-08-12T10:58:29;1.97;;;1.27;;
37535;SDS011;23379;51.554;6.736;2023-08-12T11:01:18;1.35;;;1.00;;
37535;SDS011;23379;51.554;6.736;2023-08-12T11:03:45;1.90;;;1.20;;
37535;SDS011;23379;51.554;6.736;2023-08-12T11:06:11;1.40;;;1.15;;
37535;SDS011;23379;51.554;6.736;2023-08-12T11:08:36;0.70;;;0.70;;
37535;SDS011;23379;51.554;6.736;2023-08-12T11:11:18;2.40;;;1.20;;
37535;SDS011;23379;51.554;6.736;2023-08-12T11:13:56;3.45;;;0.93;;
37535;SDS011;23379;51.554;6.736;2023-08-12T11:16:31;1.90;;;1.00;;
37535;SDS011;23379;51.554;6.736;2023-08-12T11:19:00;1.02;;;0.70;;
37535;SDS011;23379;51.554;6.736;2023-08-12T11:21:26;1.27;;;0.80;;
37535;SDS011;23379;51.554;6.736;2023-08-12T11:23:52;0.77;;;0.77;;
37535;SDS011;23379;51.554;6.736;2023-08-12T11:26:20;1.80;;;1.10;;
37535;SDS011;23379;51.554;6.736;2023-08-12T11:28:49;1.70;;;1.38;;
37535;SDS011;23379;51.554;6.736;2023-08-12T11:31:15;2.00;;;1.80;;
37535;SDS011;23379;51.554;6.736;2023-08-12T11:33:41;2.35;;;2.00;;
37535;SDS011;23379;51.554;6.736;2023-08-12T11:36:07;2.20;;;2.00;;
37535;SDS011;23379;51.554;6.736;2023-08-12T11:38:33;4.57;;;2.10;;
37535;SDS011;23379;51.554;6.736;2023-08-12T11:41:02;2.28;;;1.95;;
37535;SDS011;23379;51.554;6.736;2023-08-12T11:45:58;3.10;;;2.80;;
37535;SDS011;23379;51.554;6.736;2023-08-12T11:48:24;3.83;;;2.95;;
37535;SDS011;23379;51.554;6.736;2023-08-12T11:50:52;3.03;;;2.72;;
37535;SDS011;23379;51.554;6.736;2023-08-12T11:53:18;2.92;;;2.72;;
37535;SDS011;23379;51.554;6.736;2023-08-12T11:55:44;3.05;;;2.60;;
37535;SDS011;23379;51.554;6.736;2023-08-12T11:58:10;4.10;;;2.85;;
37535;SDS011;23379;51.554;6.736;2023-08-12T12:00:36;5.25;;;3.00;;
37535;SDS011;23379;51.554;6.736;2023-08-12T12:03:02;2.78;;;2.58;;
37535;SDS011;23379;51.554;6.736;2023-08-12T12:05:28;2.90;;;2.65;;
37535;SDS011;23379;51.554;6.736;2023-08-12T12:07:55;2.38;;;1.73;;
37535;SDS011;23379;51.554;6.736;2023-08-12T12:10:30;2.85;;;2.38;;
37535;SDS011;23379;51.554;6.736;2023-08-12T12:12:58;2.58;;;2.13;;
37535;SDS011;23379;51.554;6.736;2023-08-12T12:15:24;2.35;;;2.00;;
37535;SDS011;23379;51.554;6.736;2023-08-12T12:17:50;4.28;;;2.20;;
37535;SDS011;23379;51.554;6.736;2023-08-12T12:20:16;2.83;;;2.63;;
37535;SDS011;23379;51.554;6.736;2023-08-12T12:22:43;2.55;;;2.35;;
37535;SDS011;23379;51.554;6.736;2023-08-12T12:25:11;2.92;;;2.58;;
37535;SDS011;23379;51.554;6.736;2023-08-12T12:27:38;3.50;;;2.90;;
37535;SDS011;23379;51.554;6.736;2023-08-12T12:30:04;3.22;;;2.95;;
37535;SDS011;23379;51.554;6.736;2023-08-12T12:32:32;5.15;;;3.20;;
37535;SDS011;23379;51.554;6.736;2023-08-12T12:34:58;5.47;;;3.22;;
37535;SDS011;23379;51.554;6.736;2023-08-12T12:37:27;3.80;;;3.42;;
37535;SDS011;23379;51.554;6.736;2023-08-12T12:39:53;4.30;;;3.80;;
37535;SDS011;23379;51.554;6.736;2023-08-12T12:42:18;4.43;;;4.03;;
37535;SDS011;23379;51.554;6.736;2023-08-12T12:44:44;4.43;;;4.03;;
37535;SDS011;23379;51.554;6.736;2023-08-12T12:47:09;4.30;;;3.85;;
37535;SDS011;23379;51.554;6.736;2023-08-12T12:49:40;5.53;;;4.00;;
37535;SDS011;23379;51.554;6.736;2023-08-12T12:54:34;3.40;;;3.10;;
37535;SDS011;23379;51.554;6.736;2023-08-12T12:56:59;2.80;;;2.60;;
37535;SDS011;23379;51.554;6.736;2023-08-12T12:59:26;2.50;;;2.30;;
37535;SDS011;23379;51.554;6.736;2023-08-12T13:01:52;2.58;;;2.38;;
37535;SDS011;23379;51.554;6.736;2023-08-12T13:04:17;2.78;;;2.58;;
37535;SDS011;23379;51.554;6.736;2023-08-12T13:06:43;2.80;;;2.60;;
37535;SDS011;23379;51.554;6.736;2023-08-12T13:09:09;3.10;;;2.85;;
37535;SDS011;23379;51.554;6.736;2023-08-12T13:11:34;3.03;;;2.55;;
37535;SDS011;23379;51.554;6.736;2023-08-12T13:14:00;3.10;;;2.83;;
37535;SDS011;23379;51.554;6.736;2023-08-12T13:16:26;2.58;;;2.38;;
37535;SDS011;23379;51.554;6.736;2023-08-12T13:18:52;3.35;;;2.67;;
37535;SDS011;23379;51.554;6.736;2023-08-12T13:21:17;2.30;;;1.70;;
37535;SDS011;23379;51.554;6.736;2023-08-12T13:23:43;2.72;;;1.92;;
37535;SDS011;23379;51.554;6.736;2023-08-12T13:26:08;7.28;;;3.13;;
37535;SDS011;23379;51.554;6.736;2023-08-12T13:28:34;2.75;;;2.33;;
37535;SDS011;23379;51.554;6.736;2023-08-12T13:30:59;2.03;;;1.80;;
37535;SDS011;23379;51.554;6.736;2023-08-12T13:33:25;4.28;;;2.92;;
37535;SDS011;23379;51.554;6.736;2023-08-12T13:35:50;3.58;;;2.60;;
37535;SDS011;23379;51.554;6.736;2023-08-12T13:38:16;3.60;;;3.30;;
37535;SDS011;23379;51.554;6.736;2023-08-12T13:40:41;3.60;;;3.30;;
37535;SDS011;23379;51.554;6.736;2023-08-12T13:43:07;5.03;;;2.55;;
37535;SDS011;23379;51.554;6.736;2023-08-12T13:45:32;1.85;;;1.75;;
37535;SDS011;23379;51.554;6.736;2023-08-12T13:47:58;3.15;;;1.70;;
37535;SDS011;23379;51.554;6.736;2023-08-12T13:50:23;1.45;;;1.10;;
37535;SDS011;23379;51.554;6.736;2023-08-12T13:52:48;2.13;;;1.10;;
37535;SDS011;23379;51.554;6.736;2023-08-12T13:55:15;1.35;;;0.60;;
37535;SDS011;23379;51.554;6.736;2023-08-12T13:57:41;2.20;;;0.90;;
37535;SDS011;23379;51.554;6.736;2023-08-12T14:00:08;1.48;;;0.73;;
37535;SDS011;23379;51.554;6.736;2023-08-12T14:02:39;1.20;;;0.80;;
37535;SDS011;23379;51.554;6.736;2023-08-12T14:05:06;2.20;;;0.70;;
37535;SDS011;23379;51.554;6.736;2023-08-12T14:07:32;1.35;;;0.50;;
37535;SDS011;23379;51.554;6.736;2023-08-12T14:09:58;1.00;;;0.38;;
37535;SDS011;23379;51.554;6.736;2023-08-12T14:12:23;0.93;;;0.40;;
37535;SDS011;23379;51.554;6.736;2023-08-12T14:14:49;1.27;;;0.60;;
37535;SDS011;23379;51.554;6.736;2023-08-12T14:17:14;2.90;;;0.60;;
37535;SDS011;23379;51.554;6.736;2023-08-12T14:19:43;3.38;;;0.70;;
37535;SDS011;23379;51.554;6.736;2023-08-12T14:22:10;0.82;;;0.50;;
37535;SDS011;23379;51.554;6.736;2023-08-12T14:24:35;1.38;;;0.40;;
37535;SDS011;23379;51.554;6.736;2023-08-12T14:27:01;1.65;;;0.60;;
37535;SDS011;23379;51.554;6.736;2023-08-12T14:29:26;2.53;;;0.70;;
37535;SDS011;23379;51.554;6.736;2023-08-12T14:31:52;0.55;;;0.40;;
37535;SDS011;23379;51.554;6.736;2023-08-12T14:34:17;1.17;;;0.70;;
37535;SDS011;23379;51.554;6.736;2023-08-12T14:36:43;2.63;;;1.40;;
37535;SDS011;23379;51.554;6.736;2023-08-12T14:39:08;2.42;;;1.08;;
37535;SDS011;23379;51.554;6.736;2023-08-12T14:41:33;2.17;;;0.57;;